createdAt,value
2019-03-29T00:00:06.408Z,9.45
2019-03-29T00:01:06.932Z,9.42
2019-03-29T00:02:07.431Z,9.37
2019-03-29T00:03:08.992Z,9.34
2019-03-29T00:04:09.588Z,9.37
2019-03-29T00:05:10.122Z,9.29
2019-03-29T00:06:10.888Z,9.29
2019-03-29T00:07:11.586Z,9.30
2019-03-29T00:08:12.042Z,9.30
2019-03-29T00:09:12.596Z,9.30
2019-03-29T00:10:13.053Z,9.22
2019-03-29T00:11:15.574Z,9.24
2019-03-29T00:12:16.042Z,9.22
2019-03-29T00:13:16.618Z,9.19
2019-03-29T00:14:17.072Z,9.08
2019-03-29T00:15:17.540Z,9.12
2019-03-29T00:16:17.989Z,9.03
2019-03-29T00:17:18.531Z,9.09
2019-03-29T00:18:18.969Z,9.12
2019-03-29T00:19:19.518Z,8.99
2019-03-29T00:20:20.213Z,8.99
2019-03-29T00:21:20.869Z,8.99
2019-03-29T00:22:21.340Z,8.97
2019-03-29T00:23:23.000Z,8.93
2019-03-29T00:24:23.516Z,8.90
2019-03-29T00:25:24.064Z,8.78
2019-03-29T00:26:25.582Z,8.75
2019-03-29T00:27:26.175Z,8.78
2019-03-29T00:28:26.634Z,8.74
2019-03-29T00:29:29.985Z,8.79
2019-03-29T00:30:30.496Z,8.72
2019-03-29T00:31:30.968Z,8.77
2019-03-29T00:32:31.919Z,8.72
2019-03-29T00:33:32.416Z,8.71
2019-03-29T00:34:32.872Z,8.64
2019-03-29T00:35:33.392Z,8.66
2019-03-29T00:36:34.617Z,8.61
2019-03-29T00:37:35.142Z,8.66
2019-03-29T00:38:35.588Z,8.64
2019-03-29T00:39:37.151Z,8.60
2019-03-29T00:40:37.604Z,8.57
2019-03-29T00:41:38.157Z,8.54
2019-03-29T00:42:38.611Z,8.60
2019-03-29T00:43:39.055Z,8.53
2019-03-29T00:44:39.485Z,8.57
2019-03-29T00:45:39.937Z,8.49
2019-03-29T00:46:40.419Z,8.44
2019-03-29T00:47:40.918Z,8.44
2019-03-29T00:48:41.372Z,8.45
2019-03-29T00:49:41.820Z,8.39
2019-03-29T00:50:42.302Z,8.39
2019-03-29T00:51:42.858Z,8.35
2019-03-29T00:52:43.329Z,8.44
2019-03-29T00:53:43.767Z,8.42
2019-03-29T00:54:44.204Z,8.36
2019-03-29T00:55:44.641Z,8.38
2019-03-29T00:56:45.087Z,8.31
2019-03-29T00:57:45.554Z,8.31
2019-03-29T00:58:46.040Z,8.27
2019-03-29T00:59:46.561Z,8.27
2019-03-29T01:00:47.006Z,8.26
2019-03-29T01:01:47.461Z,8.18
2019-03-29T01:02:47.923Z,8.24
2019-03-29T01:03:48.462Z,8.31
2019-03-29T01:04:48.911Z,8.31
2019-03-29T01:05:49.349Z,8.18
2019-03-29T01:06:49.792Z,8.09
2019-03-29T01:07:50.282Z,8.20
2019-03-29T01:08:50.748Z,8.08
2019-03-29T01:09:51.240Z,8.11
2019-03-29T01:10:51.686Z,8.11
2019-03-29T01:11:52.136Z,8.01
2019-03-29T01:12:52.747Z,8.09
2019-03-29T01:13:53.195Z,8.13
2019-03-29T01:14:53.738Z,8.06
2019-03-29T01:15:54.182Z,7.95
2019-03-29T01:16:54.650Z,8.03
2019-03-29T01:17:55.102Z,8.01
2019-03-29T01:18:56.609Z,7.96
2019-03-29T01:19:57.043Z,8.05
2019-03-29T01:20:57.548Z,7.91
2019-03-29T01:21:57.994Z,7.85
2019-03-29T01:22:58.517Z,8.01
2019-03-29T01:23:58.965Z,7.91
2019-03-29T01:24:59.531Z,7.95
2019-03-29T01:26:00.970Z,7.98
2019-03-29T01:27:01.604Z,7.90
2019-03-29T01:28:02.097Z,7.87
2019-03-29T01:29:02.615Z,7.90
2019-03-29T01:30:03.053Z,7.87
2019-03-29T01:31:03.582Z,7.84
2019-03-29T01:32:04.030Z,7.85
2019-03-29T01:33:04.520Z,7.83
2019-03-29T01:34:05.003Z,7.83
2019-03-29T01:35:05.531Z,7.72
2019-03-29T01:36:06.003Z,7.78
2019-03-29T01:37:06.557Z,7.78
2019-03-29T01:38:20.806Z,7.67
2019-03-29T01:39:13.431Z,7.67
2019-03-29T01:40:13.974Z,7.70
2019-03-29T01:41:14.439Z,7.70
2019-03-29T01:42:15.027Z,7.66
2019-03-29T01:43:15.528Z,7.58
2019-03-29T01:44:16.034Z,7.67
2019-03-29T01:45:16.471Z,7.58
2019-03-29T01:46:16.988Z,7.59
2019-03-29T01:47:17.437Z,7.56
2019-03-29T01:48:17.950Z,7.55
2019-03-29T01:49:18.397Z,7.59
2019-03-29T01:50:18.951Z,7.55
2019-03-29T01:51:19.383Z,7.53
2019-03-29T01:52:20.035Z,7.51
2019-03-29T01:53:20.567Z,7.48
2019-03-29T01:54:22.045Z,7.44
2019-03-29T01:55:23.080Z,7.44
2019-03-29T01:56:23.806Z,7.41
2019-03-29T01:57:24.241Z,7.43
2019-03-29T01:58:25.147Z,7.51
2019-03-29T01:59:25.876Z,7.39
2019-03-29T02:00:26.384Z,7.44
2019-03-29T02:01:26.865Z,7.37
2019-03-29T02:02:27.452Z,7.37
2019-03-29T02:03:27.940Z,7.32
2019-03-29T02:04:28.466Z,7.37
2019-03-29T02:05:28.931Z,7.31
2019-03-29T02:06:29.516Z,7.36
2019-03-29T02:07:30.018Z,7.31
2019-03-29T02:08:35.986Z,7.29
2019-03-29T02:09:36.996Z,7.31
2019-03-29T02:10:37.511Z,7.23
2019-03-29T02:11:37.961Z,7.21
2019-03-29T02:12:38.423Z,7.18
2019-03-29T02:13:38.893Z,7.18
2019-03-29T02:14:39.338Z,7.15
2019-03-29T02:15:39.894Z,7.22
2019-03-29T02:16:40.346Z,7.26
2019-03-29T02:17:40.827Z,7.26
2019-03-29T02:18:41.296Z,7.18
2019-03-29T02:19:41.857Z,7.15
2019-03-29T02:20:42.304Z,7.18
2019-03-29T02:21:43.058Z,7.10
2019-03-29T02:22:43.793Z,7.11
2019-03-29T02:23:44.289Z,7.11
2019-03-29T02:24:44.752Z,7.15
2019-03-29T02:25:45.277Z,7.19
2019-03-29T02:26:45.714Z,7.05
2019-03-29T02:27:47.249Z,7.07
2019-03-29T02:28:47.734Z,7.03
2019-03-29T02:29:48.281Z,7.01
2019-03-29T02:30:48.745Z,7.04
2019-03-29T02:31:49.318Z,7.05
2019-03-29T02:32:49.794Z,7.03
2019-03-29T02:33:50.302Z,7.00
2019-03-29T02:34:50.757Z,7.00
2019-03-29T02:35:51.312Z,6.97
2019-03-29T02:36:51.753Z,6.93
2019-03-29T02:37:52.243Z,7.00
2019-03-29T02:38:55.654Z,6.90
2019-03-29T02:39:56.759Z,6.96
2019-03-29T02:40:57.220Z,6.89
2019-03-29T02:42:04.648Z,6.93
2019-03-29T02:43:05.220Z,6.95
2019-03-29T02:44:08.078Z,6.93
2019-03-29T02:45:08.553Z,6.83
2019-03-29T02:46:17.660Z,6.86
2019-03-29T02:47:18.132Z,6.87
2019-03-29T02:48:19.612Z,6.87
2019-03-29T02:49:20.065Z,6.82
2019-03-29T02:50:20.552Z,6.72
2019-03-29T02:51:20.992Z,6.83
2019-03-29T02:52:38.070Z,6.78
2019-03-29T02:53:38.537Z,6.83
2019-03-29T02:55:55.069Z,6.75
2019-03-29T02:56:57.563Z,6.78
2019-03-29T02:57:58.008Z,6.74
2019-03-29T02:58:59.553Z,6.74
2019-03-29T02:59:59.998Z,6.72
2019-03-29T03:01:00.555Z,6.72
2019-03-29T03:02:01.001Z,6.71
2019-03-29T03:03:03.552Z,6.70
2019-03-29T03:04:04.034Z,6.74
2019-03-29T03:06:28.534Z,6.67
2019-03-29T03:07:37.757Z,6.68
2019-03-29T03:08:38.205Z,6.67
2019-03-29T03:09:54.101Z,6.59
2019-03-29T03:10:54.565Z,6.60
2019-03-29T03:39:00.545Z,6.44
2019-03-29T03:40:01.096Z,6.38
2019-03-29T03:41:08.501Z,6.41
2019-03-29T03:42:08.973Z,6.36
2019-03-29T03:43:16.068Z,6.46
2019-03-29T03:44:16.537Z,6.39
2019-03-29T03:45:32.033Z,6.38
2019-03-29T03:46:32.487Z,6.26
2019-03-29T03:47:32.968Z,6.35
2019-03-29T03:48:33.415Z,6.31
2019-03-29T03:49:33.933Z,6.31
2019-03-29T03:50:34.382Z,6.29
2019-03-29T03:51:42.519Z,6.25
2019-03-29T03:52:42.972Z,6.29
2019-03-29T03:55:00.496Z,6.32
2019-03-29T03:56:01.010Z,6.20
2019-03-29T03:57:01.488Z,6.22
2019-03-29T03:58:02.043Z,6.26
2019-03-29T03:59:02.491Z,6.28
2019-03-29T04:00:02.955Z,6.28
2019-03-29T04:01:03.414Z,6.26
2019-03-29T04:02:03.881Z,6.26
2019-03-29T04:03:06.411Z,6.20
2019-03-29T04:04:06.966Z,6.15
2019-03-29T04:05:08.204Z,6.10
2019-03-29T04:06:08.654Z,6.16
2019-03-29T04:07:09.196Z,6.06
2019-03-29T04:08:09.653Z,6.10
2019-03-29T04:09:10.215Z,6.16
2019-03-29T04:10:10.685Z,6.05
2019-03-29T04:11:11.249Z,6.12
2019-03-29T04:12:11.695Z,6.13
2019-03-29T04:13:12.146Z,6.12
2019-03-29T04:14:12.592Z,6.12
2019-03-29T04:15:35.582Z,6.12
2019-03-29T04:16:36.056Z,6.12
2019-03-29T04:17:36.579Z,6.10
2019-03-29T04:18:37.026Z,6.10
2019-03-29T04:20:54.929Z,6.07
2019-03-29T04:21:56.473Z,6.06
2019-03-29T04:22:56.912Z,6.02
2019-03-29T04:24:18.405Z,6.06
2019-03-29T04:25:18.887Z,5.98
2019-03-29T04:27:35.393Z,5.98
2019-03-29T04:28:43.513Z,5.98
2019-03-29T04:29:43.980Z,5.99
2019-03-29T04:32:08.904Z,5.97
2019-03-29T04:33:17.973Z,5.95
2019-03-29T04:34:18.437Z,5.97
2019-03-29T04:35:20.964Z,5.97
2019-03-29T04:36:21.401Z,5.90
2019-03-29T04:37:22.966Z,5.91
2019-03-29T04:38:23.409Z,5.91
2019-03-29T04:39:30.481Z,5.88
2019-03-29T04:40:31.031Z,5.84
2019-03-29T04:41:52.530Z,5.90
2019-03-29T04:42:52.968Z,5.87
2019-03-29T04:43:53.458Z,5.83
2019-03-29T04:44:53.941Z,5.73
2019-03-29T04:46:09.948Z,5.73
2019-03-29T04:47:10.386Z,5.84
2019-03-29T04:49:26.943Z,5.72
2019-03-29T04:50:27.514Z,5.84
2019-03-29T04:51:27.979Z,5.72
2019-03-29T04:52:29.444Z,5.79
2019-03-29T04:53:29.889Z,5.72
2019-03-29T05:24:16.106Z,5.61
2019-03-29T05:25:42.922Z,5.62
2019-03-29T05:26:43.397Z,5.61
2019-03-29T05:27:44.948Z,5.58
2019-03-29T05:28:45.403Z,5.55
2019-03-29T05:30:10.497Z,5.73
2019-03-29T05:31:10.956Z,5.67
2019-03-29T05:32:27.488Z,5.61
2019-03-29T05:33:27.945Z,5.64
2019-03-29T05:34:28.404Z,5.64
2019-03-29T05:35:28.868Z,5.61
2019-03-29T05:36:31.394Z,5.65
2019-03-29T05:37:31.865Z,5.72
2019-03-29T05:38:39.906Z,5.69
2019-03-29T05:39:40.350Z,5.67
2019-03-29T05:40:43.947Z,5.59
2019-03-29T05:41:44.390Z,5.73
2019-03-29T05:42:44.851Z,5.65
2019-03-29T05:43:45.369Z,5.65
2019-03-29T05:44:45.814Z,5.69
2019-03-29T05:45:46.359Z,5.73
2019-03-29T05:46:46.806Z,5.65
2019-03-29T05:47:47.363Z,5.69
2019-03-29T05:48:47.808Z,5.69
2019-03-29T05:49:48.295Z,5.81
2019-03-29T05:50:48.767Z,5.73
2019-03-29T05:51:49.325Z,5.80
2019-03-29T05:52:49.765Z,5.81
2019-03-29T05:53:50.245Z,5.90
2019-03-29T05:54:50.722Z,5.88
2019-03-29T05:55:51.229Z,5.90
2019-03-29T05:56:51.685Z,5.91
2019-03-29T05:57:52.126Z,5.84
2019-03-29T05:58:52.594Z,5.92
2019-03-29T05:59:53.192Z,5.99
2019-03-29T06:00:53.651Z,5.95
2019-03-29T06:01:54.190Z,6.05
2019-03-29T06:02:54.726Z,5.95
2019-03-29T06:03:55.280Z,5.95
2019-03-29T06:04:55.751Z,6.10
2019-03-29T06:05:56.315Z,6.10
2019-03-29T06:06:56.773Z,6.16
2019-03-29T06:07:57.315Z,6.15
2019-03-29T06:08:57.747Z,6.15
2019-03-29T06:09:58.345Z,6.19
2019-03-29T06:10:58.805Z,6.29
2019-03-29T06:11:59.397Z,6.22
2019-03-29T06:12:59.849Z,6.19
2019-03-29T07:11:16.779Z,9.13
2019-03-29T07:12:09.765Z,9.24
2019-03-29T07:13:11.294Z,9.39
2019-03-29T07:14:11.747Z,9.48
2019-03-29T07:15:18.877Z,9.59
2019-03-29T07:16:19.331Z,9.73
2019-03-29T07:17:26.475Z,9.80
2019-03-29T07:18:26.916Z,9.90
2019-03-29T07:19:34.884Z,10.05
2019-03-29T07:20:35.340Z,10.09
2019-03-29T07:21:39.953Z,10.21
2019-03-29T07:22:40.400Z,10.36
2019-03-29T07:23:55.391Z,10.51
2019-03-29T07:24:55.834Z,10.61
2019-03-29T07:25:57.349Z,10.75
2019-03-29T07:26:57.829Z,10.86
2019-03-29T07:27:59.439Z,10.92
2019-03-29T07:28:59.885Z,11.04
2019-03-29T07:30:02.396Z,11.15
2019-03-29T07:31:02.846Z,11.33
2019-03-29T07:32:18.416Z,11.35
2019-03-29T07:33:18.857Z,11.49
2019-03-29T07:34:20.439Z,11.62
2019-03-29T07:35:20.882Z,11.67
2019-03-29T07:36:21.435Z,11.80
2019-03-29T07:37:21.891Z,11.85
2019-03-29T07:38:22.335Z,12.15
2019-03-29T07:39:24.909Z,12.15
2019-03-29T07:40:25.367Z,12.33
2019-03-29T07:41:31.981Z,12.36
2019-03-29T07:42:32.403Z,12.43
2019-03-29T07:43:47.472Z,12.62
2019-03-29T07:44:47.925Z,12.54
2019-03-29T07:45:48.400Z,12.78
2019-03-29T07:46:52.922Z,12.88
2019-03-29T07:47:53.358Z,12.94
2019-03-29T07:48:53.826Z,13.08
2019-03-29T07:49:54.291Z,13.19
2019-03-29T07:50:56.813Z,13.30
2019-03-29T07:51:57.359Z,13.30
2019-03-29T07:52:57.979Z,13.47
2019-03-29T07:53:58.437Z,13.47
2019-03-29T07:54:58.997Z,13.64
2019-03-29T07:55:59.463Z,13.62
2019-03-29T07:57:05.486Z,13.62
2019-03-29T07:58:06.030Z,13.70
2019-03-29T07:59:06.590Z,13.79
2019-03-29T08:00:07.057Z,13.80
2019-03-29T08:01:08.760Z,14.00
2019-03-29T08:02:09.548Z,14.05
2019-03-29T08:03:10.088Z,14.04
2019-03-29T08:04:10.530Z,14.19
2019-03-29T08:05:11.035Z,14.20
2019-03-29T08:06:12.099Z,14.28
2019-03-29T08:07:26.301Z,14.37
2019-03-29T08:08:24.626Z,14.38
2019-03-29T08:10:48.997Z,14.44
2019-03-29T08:11:50.568Z,14.55
2019-03-29T08:12:51.053Z,14.63
2019-03-29T08:14:19.491Z,14.68
2019-03-29T08:15:19.954Z,14.81
2019-03-29T08:16:56.540Z,14.92
2019-03-29T08:17:57.015Z,14.96
2019-03-29T08:19:04.475Z,15.02
2019-03-29T08:20:36.525Z,15.07
2019-03-29T08:21:11.572Z,15.14
2019-03-29T08:22:12.036Z,15.19
2019-03-29T08:23:12.597Z,15.25
2019-03-29T08:24:13.042Z,15.37
2019-03-29T08:25:13.741Z,15.36
2019-03-29T08:26:14.214Z,15.47
2019-03-29T08:27:15.725Z,15.55
2019-03-29T08:28:16.170Z,15.60
2019-03-29T08:29:17.760Z,15.63
2019-03-29T08:30:18.204Z,15.69
2019-03-29T08:33:31.598Z,15.87
2019-03-29T08:35:55.139Z,16.00
2019-03-29T08:36:56.719Z,16.08
2019-03-29T08:37:57.173Z,16.10
2019-03-29T08:39:05.283Z,16.12
2019-03-29T08:40:05.757Z,16.10
2019-03-29T08:41:08.317Z,16.22
2019-03-29T08:42:08.836Z,16.26
2019-03-29T08:43:32.394Z,16.25
2019-03-29T08:44:32.840Z,16.39
2019-03-29T08:45:40.190Z,16.41
2019-03-29T08:46:40.639Z,16.40
2019-03-29T08:47:59.319Z,16.44
2019-03-29T08:48:59.791Z,16.50
2019-03-29T08:50:08.273Z,16.49
2019-03-29T08:51:08.765Z,16.49
2019-03-29T08:52:42.221Z,16.55
2019-03-29T08:53:42.681Z,16.61
2019-03-29T08:54:44.242Z,16.69
2019-03-29T08:55:46.268Z,16.77
2019-03-29T08:56:49.090Z,16.94
2019-03-29T08:57:49.542Z,17.02
2019-03-29T08:59:11.124Z,17.04
2019-03-29T09:00:11.592Z,17.05
2019-03-29T09:01:13.163Z,17.16
2019-03-29T09:02:13.660Z,17.16
2019-03-29T09:03:37.251Z,17.20
2019-03-29T09:04:37.737Z,17.31
2019-03-29T09:05:39.551Z,17.34
2019-03-29T09:06:52.668Z,17.37
2019-03-29T09:07:50.765Z,17.37
2019-03-29T09:08:51.298Z,17.37
2019-03-29T09:09:54.763Z,17.44
2019-03-29T09:10:55.299Z,17.38
2019-03-29T09:13:04.838Z,17.57
2019-03-29T09:15:28.736Z,17.68
2019-03-29T09:16:45.411Z,17.75
2019-03-29T09:17:46.123Z,17.82
2019-03-29T09:18:46.665Z,17.79
2019-03-29T09:19:47.124Z,17.90
2019-03-29T09:20:49.665Z,17.97
2019-03-29T09:21:50.116Z,17.94
2019-03-29T09:22:52.659Z,18.09
2019-03-29T09:23:54.449Z,18.15
2019-03-29T09:24:57.049Z,18.12
2019-03-29T09:25:57.498Z,18.11
2019-03-29T09:29:25.199Z,18.24
2019-03-29T09:31:41.930Z,18.43
2019-03-29T09:32:42.498Z,18.36
2019-03-29T09:33:42.955Z,18.51
2019-03-29T09:34:43.503Z,18.49
2019-03-29T09:35:43.945Z,18.42
2019-03-29T09:37:00.081Z,18.52
2019-03-29T09:38:00.835Z,18.63
2019-03-29T09:39:16.137Z,18.61
2019-03-29T09:40:17.848Z,18.60
2019-03-29T09:41:25.719Z,18.66
2019-03-29T09:42:29.479Z,18.68
2019-03-29T09:43:59.542Z,18.68
2019-03-29T09:45:00.031Z,18.79
2019-03-29T09:46:03.513Z,18.88
2019-03-29T09:47:04.165Z,19.00
2019-03-29T09:48:20.096Z,18.88
2019-03-29T09:49:20.852Z,18.97
2019-03-29T09:50:23.039Z,18.91
2019-03-29T09:51:23.766Z,18.97
2019-03-29T09:53:41.335Z,19.00
2019-03-29T09:54:44.043Z,19.09
2019-03-29T09:55:45.880Z,19.11
2019-03-29T09:56:53.488Z,19.22
2019-03-29T09:57:54.013Z,19.27
2019-03-29T09:59:01.501Z,19.26
2019-03-29T10:00:01.940Z,19.30
2019-03-29T10:01:02.438Z,19.37
2019-03-29T10:02:02.872Z,19.42
2019-03-29T10:03:03.418Z,19.55
2019-03-29T10:04:04.091Z,19.62
2019-03-29T10:05:04.617Z,19.71
2019-03-29T10:06:05.146Z,19.59
2019-03-29T10:07:05.592Z,19.67
2019-03-29T10:08:06.424Z,19.71
2019-03-29T10:09:06.881Z,19.77
2019-03-29T10:10:09.479Z,19.79
2019-03-29T10:11:09.943Z,19.87
2019-03-29T10:12:11.645Z,19.96
2019-03-29T10:13:12.310Z,20.00
2019-03-29T10:14:12.982Z,20.02
2019-03-29T10:15:13.486Z,20.03
2019-03-29T10:16:14.081Z,20.02
2019-03-29T10:17:14.651Z,19.99
2019-03-29T10:18:19.687Z,20.07
2019-03-29T10:19:20.184Z,20.03
2019-03-29T10:20:20.743Z,20.08
2019-03-29T10:21:21.207Z,20.11
2019-03-29T10:24:48.535Z,20.19
2019-03-29T10:25:49.130Z,20.08
2019-03-29T10:26:49.618Z,20.03
2019-03-29T10:27:58.786Z,20.11
2019-03-29T10:28:59.352Z,20.15
2019-03-29T10:30:21.993Z,20.14
2019-03-29T10:31:31.973Z,20.19
2019-03-29T10:32:28.879Z,20.21
2019-03-29T10:33:30.546Z,20.27
2019-03-29T10:34:31.019Z,20.34
2019-03-29T10:35:32.626Z,20.29
2019-03-29T10:36:33.072Z,20.37
2019-03-29T10:37:55.676Z,20.44
2019-03-29T10:38:56.152Z,20.37
2019-03-29T10:39:57.752Z,20.40
2019-03-29T10:40:58.304Z,20.53
2019-03-29T10:41:59.910Z,20.56
2019-03-29T10:43:00.385Z,20.56
2019-03-29T10:44:09.872Z,20.55
2019-03-29T10:45:10.337Z,20.71
2019-03-29T10:46:25.764Z,20.71
2019-03-29T10:47:42.533Z,20.73
2019-03-29T10:55:46.214Z,21.03
2019-03-29T10:56:46.731Z,21.15
2019-03-29T10:57:56.142Z,21.11
2019-03-29T10:58:56.647Z,21.26
2019-03-29T10:59:57.263Z,21.28
2019-03-29T11:00:57.725Z,21.35
2019-03-29T11:02:28.094Z,21.37
2019-03-29T11:03:28.976Z,21.45
2019-03-29T11:15:01.491Z,29.15
2019-03-29T11:16:01.937Z,31.41
2019-03-29T11:19:12.466Z,37.37
2019-03-29T11:22:11.362Z,41.30
2019-03-29T11:23:11.896Z,42.46
2019-03-29T11:24:15.559Z,43.35
2019-03-29T11:25:16.032Z,44.03
2019-03-29T11:26:23.487Z,44.83
2019-03-29T11:27:24.044Z,45.64
2019-03-29T11:28:57.532Z,46.34
2019-03-29T11:29:58.014Z,47.06
2019-03-29T11:31:06.515Z,47.30
2019-03-29T11:32:07.310Z,47.55
2019-03-29T11:33:15.539Z,47.69
2019-03-29T11:34:16.045Z,47.83
2019-03-29T11:35:17.615Z,47.95
2019-03-29T11:36:18.091Z,48.18
2019-03-29T11:37:19.655Z,48.29
2019-03-29T11:38:20.161Z,48.52
2019-03-29T11:39:20.691Z,48.68
2019-03-29T11:40:21.306Z,48.85
2019-03-29T11:41:57.468Z,49.02
2019-03-29T11:42:57.986Z,49.14
2019-03-29T11:49:25.122Z,50.07
2019-03-29T11:50:28.876Z,50.17
2019-03-29T11:51:29.987Z,50.17
2019-03-29T11:52:33.690Z,50.26
2019-03-29T11:53:34.391Z,50.26
2019-03-29T11:54:34.922Z,50.40
2019-03-29T11:55:35.378Z,50.56
2019-03-29T11:56:35.875Z,50.75
2019-03-29T11:57:36.332Z,50.87
2019-03-29T11:58:36.778Z,51.01
2019-03-29T11:59:40.010Z,50.98
2019-03-29T12:00:40.794Z,50.82
2019-03-29T12:01:41.238Z,50.79
2019-03-29T12:02:41.678Z,50.66
2019-03-29T12:03:42.142Z,50.73
2019-03-29T12:04:42.621Z,50.79
2019-03-29T13:33:22.487Z,49.21
2019-03-29T13:34:22.957Z,49.25
2019-03-29T13:35:28.428Z,49.21
2019-03-29T13:36:28.882Z,49.37
2019-03-29T13:37:29.434Z,49.47
2019-03-29T13:38:29.871Z,49.68
2019-03-29T13:39:31.391Z,49.83
2019-03-29T13:40:31.841Z,49.95
2019-03-29T13:41:38.982Z,49.95
2019-03-29T13:42:39.429Z,50.00
2019-03-29T13:43:39.925Z,50.19
2019-03-29T13:44:40.361Z,50.07
2019-03-29T13:45:40.883Z,50.16
2019-03-29T13:46:41.334Z,50.24
2019-03-29T13:47:42.811Z,50.22
2019-03-29T13:48:43.248Z,50.01
2019-03-29T13:49:43.836Z,49.82
2019-03-29T13:50:44.355Z,49.75
2019-03-29T15:37:09.834Z,21.75
2019-03-29T15:38:10.566Z,21.62
2019-03-29T15:39:11.016Z,21.54
2019-03-29T15:40:11.563Z,21.60
2019-03-29T15:41:12.007Z,21.58
2019-03-29T15:42:13.524Z,21.40
2019-03-29T15:43:13.963Z,21.29
2019-03-29T15:44:14.506Z,21.14
2019-03-29T15:45:20.643Z,21.13
2019-03-29T15:46:21.399Z,21.00
2019-03-29T15:47:21.858Z,21.01
2019-03-29T15:48:22.439Z,21.04
2019-03-29T15:49:22.988Z,20.86
2019-03-29T15:50:23.455Z,21.00
2019-03-29T15:51:23.950Z,20.89
2019-03-29T15:52:24.563Z,20.86
2019-03-29T15:53:25.001Z,20.83
2019-03-29T15:54:25.532Z,20.71
2019-03-29T15:55:25.980Z,20.68
2019-03-29T15:56:26.547Z,20.66
2019-03-29T15:57:26.983Z,20.66
2019-03-29T15:58:27.509Z,20.44
2019-03-29T15:59:27.945Z,20.39
2019-03-29T16:00:28.446Z,20.33
2019-03-29T16:01:28.902Z,20.27
2019-03-29T16:02:29.386Z,20.24
2019-03-29T16:03:29.819Z,20.18
2019-03-29T16:04:30.260Z,20.17
2019-03-29T16:05:30.728Z,20.04
2019-03-29T16:06:31.189Z,20.00
2019-03-29T16:07:34.813Z,19.99
2019-03-29T16:08:35.565Z,20.00
2019-03-29T16:09:36.080Z,19.92
2019-03-29T16:10:36.546Z,19.89
2019-03-29T16:11:37.073Z,19.85
2019-03-29T16:12:37.510Z,19.67
2019-03-29T16:13:38.054Z,19.77
2019-03-29T16:14:38.518Z,19.70
2019-03-29T16:15:39.099Z,19.77
2019-03-29T16:16:39.587Z,19.64
2019-03-29T16:17:40.105Z,19.62
2019-03-29T16:18:40.660Z,19.56
2019-03-29T16:19:41.176Z,19.62
2019-03-29T16:20:41.692Z,19.52
2019-03-29T16:21:42.240Z,19.59
2019-03-29T16:22:42.707Z,19.60
2019-03-29T16:23:43.342Z,19.52
2019-03-29T16:24:43.795Z,19.55
2019-03-29T16:25:44.292Z,19.53
2019-03-29T16:26:44.741Z,19.52
2019-03-29T16:27:47.263Z,19.47
2019-03-29T16:28:47.706Z,19.35
2019-03-29T16:29:48.207Z,19.32
2019-03-29T16:30:48.649Z,19.32
2019-03-29T16:31:49.163Z,19.27
2019-03-29T16:32:49.615Z,19.20
2019-03-29T16:33:50.070Z,19.16
2019-03-29T16:34:50.866Z,19.04
2019-03-29T16:35:51.414Z,19.08
2019-03-29T16:36:51.873Z,19.04
2019-03-29T16:37:57.506Z,18.97
2019-03-29T16:38:59.835Z,18.91
2019-03-29T16:40:00.376Z,18.91
2019-03-29T16:41:00.932Z,18.86
2019-03-29T16:42:01.398Z,18.94
2019-03-29T16:43:01.918Z,18.83
2019-03-29T16:44:02.362Z,18.83
2019-03-29T16:45:02.949Z,18.79
2019-03-29T16:46:03.388Z,18.67
2019-03-29T16:47:03.916Z,18.66
2019-03-29T16:48:06.615Z,18.68
2019-03-29T16:49:07.455Z,18.66
2019-03-29T16:50:08.022Z,18.70
2019-03-29T16:51:08.630Z,18.57
2019-03-29T16:52:09.109Z,18.58
2019-03-29T16:53:09.556Z,18.53
2019-03-29T16:54:10.008Z,18.60
2019-03-29T16:55:13.605Z,18.55
2019-03-29T16:56:14.615Z,18.45
2019-03-29T16:57:15.083Z,18.46
2019-03-29T16:58:15.649Z,18.34
2019-03-29T16:59:16.113Z,18.37
2019-03-29T17:00:16.675Z,18.39
2019-03-29T17:01:17.156Z,18.43
2019-03-29T17:02:17.812Z,18.34
2019-03-29T17:03:18.246Z,18.39
2019-03-29T17:04:18.688Z,18.24
2019-03-29T17:05:19.147Z,18.23
2019-03-29T17:06:19.592Z,18.21
2019-03-29T17:07:20.079Z,18.19
2019-03-29T17:08:20.524Z,18.18
2019-03-29T17:09:20.986Z,18.24
2019-03-29T17:10:21.431Z,18.18
2019-03-29T17:11:21.875Z,18.09
2019-03-29T17:12:43.315Z,18.12
2019-03-29T17:13:44.416Z,18.03
2019-03-29T17:14:44.913Z,18.05
2019-03-29T17:15:45.351Z,18.00
2019-03-29T17:16:45.830Z,18.00
2019-03-29T17:17:46.290Z,18.00
2019-03-29T17:18:46.746Z,17.93
2019-03-29T17:19:47.216Z,17.86
2019-03-29T17:20:47.736Z,17.82
2019-03-29T17:21:48.212Z,17.72
2019-03-29T17:23:04.863Z,17.65
2019-03-29T17:24:05.315Z,17.60
2019-03-29T17:25:05.824Z,17.57
2019-03-29T17:26:06.310Z,17.53
2019-03-29T17:27:06.896Z,17.46
2019-03-29T17:28:07.340Z,17.42
2019-03-29T17:29:07.802Z,17.38
2019-03-29T17:30:08.244Z,17.37
2019-03-29T17:31:15.298Z,17.34
2019-03-29T17:32:15.780Z,17.28
2019-03-29T17:33:16.335Z,17.19
2019-03-29T17:34:16.805Z,17.16
2019-03-29T17:35:17.249Z,17.16
2019-03-29T17:36:17.696Z,17.07
2019-03-29T17:37:18.197Z,17.05
2019-03-29T17:38:18.647Z,16.89
2019-03-29T17:39:21.984Z,16.99
2019-03-29T17:40:22.764Z,16.84
2019-03-29T17:41:23.198Z,16.80
2019-03-29T17:42:23.659Z,16.80
2019-03-29T17:43:24.177Z,16.74
2019-03-29T17:44:24.651Z,16.64
2019-03-29T17:45:25.188Z,16.57
2019-03-29T17:46:25.643Z,16.50
2019-03-29T17:47:26.159Z,16.57
2019-03-29T17:48:26.605Z,16.46
2019-03-29T17:49:27.062Z,16.44
2019-03-29T17:50:27.508Z,16.46
2019-03-29T17:51:27.959Z,16.41
2019-03-29T17:52:28.416Z,16.36
2019-03-29T17:53:28.863Z,16.31
2019-03-29T17:54:29.440Z,16.26
2019-03-29T17:55:31.757Z,16.17
2019-03-29T17:56:32.516Z,16.13
2019-03-29T17:57:32.987Z,16.12
2019-03-29T17:58:33.445Z,16.06
2019-03-29T17:59:33.891Z,16.00
2019-03-29T18:00:34.435Z,15.96
2019-03-29T18:01:34.905Z,15.88
2019-03-29T18:02:35.372Z,15.83
2019-03-29T18:03:35.822Z,15.84
2019-03-29T18:04:36.272Z,15.65
2019-03-29T18:05:36.718Z,15.83
2019-03-29T18:06:37.169Z,15.70
2019-03-29T18:07:37.632Z,15.67
2019-03-29T18:08:38.103Z,15.65
2019-03-29T18:09:38.545Z,15.55
2019-03-29T18:10:38.980Z,15.48
2019-03-29T18:11:39.420Z,15.50
2019-03-29T18:12:39.929Z,15.44
2019-03-29T18:13:40.400Z,15.47
2019-03-29T18:14:40.848Z,15.43
2019-03-29T18:15:41.285Z,15.37
2019-03-29T18:16:41.733Z,15.36
2019-03-29T18:17:42.196Z,15.27
2019-03-29T18:18:42.664Z,15.35
2019-03-29T18:19:43.107Z,15.29
2019-03-29T18:20:43.560Z,15.27
2019-03-29T18:21:44.100Z,15.18
2019-03-29T18:22:44.577Z,15.22
2019-03-29T18:23:45.139Z,15.10
2019-03-29T18:24:45.589Z,15.12
2019-03-29T18:25:46.040Z,15.08
2019-03-29T18:26:46.476Z,15.10
2019-03-29T18:27:46.943Z,14.99
2019-03-29T18:28:47.394Z,14.94
2019-03-29T18:29:47.914Z,14.85
2019-03-29T18:30:48.361Z,14.85
2019-03-29T18:31:48.819Z,14.86
2019-03-29T18:32:49.340Z,14.74
2019-03-29T18:33:49.781Z,14.78
2019-03-29T18:34:51.271Z,14.73
2019-03-29T18:35:51.716Z,14.66
2019-03-29T18:36:53.408Z,14.73
2019-03-29T18:37:53.871Z,14.59
2019-03-29T18:38:54.324Z,14.62
2019-03-29T18:39:55.163Z,14.63
2019-03-29T18:40:55.772Z,14.61
2019-03-29T18:41:56.214Z,14.58
2019-03-29T18:42:56.688Z,14.52
2019-03-29T18:43:57.138Z,14.49
2019-03-29T18:44:57.580Z,14.43
2019-03-29T18:45:58.018Z,14.38
2019-03-29T18:46:58.465Z,14.40
2019-03-29T18:47:58.923Z,14.36
2019-03-29T18:48:59.366Z,14.40
2019-03-29T18:49:59.806Z,14.30
2019-03-29T18:51:00.256Z,14.36
2019-03-29T18:52:00.702Z,14.28
2019-03-29T18:53:01.156Z,14.18
2019-03-29T18:54:01.598Z,14.26
2019-03-29T18:55:02.045Z,14.22
2019-03-29T18:56:02.486Z,14.07
2019-03-29T18:57:02.935Z,14.12
2019-03-29T18:58:05.856Z,14.12
2019-03-29T18:59:06.555Z,14.05
2019-03-29T19:00:07.001Z,14.04
2019-03-29T19:01:07.466Z,13.98
2019-03-29T19:02:07.912Z,13.93
2019-03-29T19:03:11.630Z,14.00
2019-03-29T19:04:12.580Z,14.00
2019-03-29T19:05:13.050Z,13.89
2019-03-29T19:11:01.536Z,13.75
2019-03-29T19:12:01.977Z,13.65
2019-03-29T19:13:02.442Z,13.67
2019-03-29T19:14:02.895Z,13.67
2019-03-29T19:15:03.335Z,13.62
2019-03-29T19:16:03.775Z,13.70
2019-03-29T19:17:04.236Z,13.65
2019-03-29T19:18:04.708Z,13.61
2019-03-29T19:19:10.185Z,13.50
2019-03-29T19:20:16.234Z,13.47
2019-03-29T19:21:18.007Z,13.47
2019-03-29T19:22:18.477Z,13.37
2019-03-29T19:23:18.980Z,13.46
2019-03-29T19:24:19.428Z,13.39
2019-03-29T19:25:19.938Z,13.27
2019-03-29T19:26:20.396Z,13.30
2019-03-29T19:27:20.839Z,13.33
2019-03-29T19:28:21.288Z,13.19
2019-03-29T19:29:21.726Z,13.20
2019-03-29T19:30:22.258Z,13.23
2019-03-29T19:31:22.707Z,13.17